sensor_id;sensor_type;location;lat;lon;timestamp;pressure;altitude;pressure_sealevel;temperature;humidity
77469;BME280;66567;50.272;12.818;2023-03-05T00:00:06;95883;;;2.1;63.7
77469;BME280;66567;50.272;12.818;2023-03-05T00:02:05;95886;;;2.1;63.8
77469;BME280;66567;50.272;12.818;2023-03-05T00:04:08;95886;;;2.1;64.2
77469;BME280;66567;50.272;12.818;2023-03-05T00:06:06;95884;;;2.1;64.4
77469;BME280;66567;50.272;12.818;2023-03-05T00:08:05;95884;;;2.1;64.6
77469;BME280;66567;50.272;12.818;2023-03-05T00:10:06;95885;;;2.1;64.8
77469;BME280;66567;50.272;12.818;2023-03-05T00:12:06;95885;;;2.1;64.9
77469;BME280;66567;50.272;12.818;2023-03-05T00:14:05;95883;;;2.1;65.1
77469;BME280;66567;50.272;12.818;2023-03-05T00:16:07;95882;;;2.1;65.3
77469;BME280;66567;50.272;12.818;2023-03-05T00:18:05;95883;;;2.1;65.2
77469;BME280;66567;50.272;12.818;2023-03-05T00:20:06;95886;;;2.1;65.4
77469;BME280;66567;50.272;12.818;2023-03-05T00:22:06;95888;;;2.1;65.3
77469;BME280;66567;50.272;12.818;2023-03-05T00:24:10;95886;;;2.1;65.4
77469;BME280;66567;50.272;12.818;2023-03-05T00:26:06;95884;;;2.1;65.7
77469;BME280;66567;50.272;12.818;2023-03-05T00:28:06;95883;;;2.1;66.2
77469;BME280;66567;50.272;12.818;2023-03-05T00:30:06;95880;;;2.1;66.2
77469;BME280;66567;50.272;12.818;2023-03-05T00:32:05;95877;;;2.1;66.1
77469;BME280;66567;50.272;12.818;2023-03-05T00:34:07;95878;;;2.0;66.3
77469;BME280;66567;50.272;12.818;2023-03-05T00:36:06;95876;;;2.0;66.3
77469;BME280;66567;50.272;12.818;2023-03-05T00:38:05;95873;;;2.0;66.3
77469;BME280;66567;50.272;12.818;2023-03-05T00:40:06;95872;;;2.0;66.5
77469;BME280;66567;50.272;12.818;2023-03-05T00:42:06;95868;;;2.0;66.2
77469;BME280;66567;50.272;12.818;2023-03-05T00:44:05;95865;;;2.0;66.1
77469;BME280;66567;50.272;12.818;2023-03-05T00:46:05;95864;;;1.9;66.2
77469;BME280;66567;50.272;12.818;2023-03-05T00:48:05;95863;;;1.9;65.8
77469;BME280;66567;50.272;12.818;2023-03-05T00:50:06;95860;;;1.9;65.6
77469;BME280;66567;50.272;12.818;2023-03-05T00:52:05;95858;;;1.9;65.3
77469;BME280;66567;50.272;12.818;2023-03-05T00:54:05;95856;;;1.8;65.3
77469;BME280;66567;50.272;12.818;2023-03-05T00:56:06;95854;;;1.8;65.3
77469;BME280;66567;50.272;12.818;2023-03-05T00:58:05;95853;;;1.8;65.0
77469;BME280;66567;50.272;12.818;2023-03-05T01:00:06;95852;;;1.8;65.2
77469;BME280;66567;50.272;12.818;2023-03-05T01:02:05;95849;;;1.8;65.0
77469;BME280;66567;50.272;12.818;2023-03-05T01:04:05;95846;;;1.8;64.9
77469;BME280;66567;50.272;12.818;2023-03-05T01:06:08;95843;;;1.8;64.8
77469;BME280;66567;50.272;12.818;2023-03-05T01:08:05;95843;;;1.8;64.6
77469;BME280;66567;50.272;12.818;2023-03-05T01:10:06;95840;;;1.7;64.4
77469;BME280;66567;50.272;12.818;2023-03-05T01:12:06;95838;;;1.7;64.4
77469;BME280;66567;50.272;12.818;2023-03-05T01:14:05;95838;;;1.7;64.3
77469;BME280;66567;50.272;12.818;2023-03-05T01:16:06;95840;;;1.7;64.4
77469;BME280;66567;50.272;12.818;2023-03-05T01:18:05;95840;;;1.7;64.2
77469;BME280;66567;50.272;12.818;2023-03-05T01:20:06;95840;;;1.7;64.5
77469;BME280;66567;50.272;12.818;2023-03-05T01:22:05;95840;;;1.7;64.5
77469;BME280;66567;50.272;12.818;2023-03-05T01:24:06;95841;;;1.7;64.8
77469;BME280;66567;50.272;12.818;2023-03-05T01:26:07;95842;;;1.7;64.9
77469;BME280;66567;50.272;12.818;2023-03-05T01:28:05;95841;;;1.7;65.2
77469;BME280;66567;50.272;12.818;2023-03-05T01:30:07;95839;;;1.7;65.4
77469;BME280;66567;50.272;12.818;2023-03-05T01:32:05;95837;;;1.6;65.3
77469;BME280;66567;50.272;12.818;2023-03-05T01:34:05;95836;;;1.6;64.8
77469;BME280;66567;50.272;12.818;2023-03-05T01:36:08;95833;;;1.6;64.7
77469;BME280;66567;50.272;12.818;2023-03-05T01:38:05;95837;;;1.6;64.5
77469;BME280;66567;50.272;12.818;2023-03-05T01:40:06;95838;;;1.5;64.5
77469;BME280;66567;50.272;12.818;2023-03-05T01:42:06;95830;;;1.5;63.7
77469;BME280;66567;50.272;12.818;2023-03-05T01:44:05;95829;;;1.5;63.5
77469;BME280;66567;50.272;12.818;2023-03-05T01:48:05;95831;;;1.5;64.0
77469;BME280;66567;50.272;12.818;2023-03-05T01:50:08;95831;;;1.5;62.6
77469;BME280;66567;50.272;12.818;2023-03-05T01:52:10;95824;;;1.5;62.0
77469;BME280;66567;50.272;12.818;2023-03-05T01:54:06;95820;;;1.5;61.3
77469;BME280;66567;50.272;12.818;2023-03-05T01:56:05;95816;;;1.5;60.9
77469;BME280;66567;50.272;12.818;2023-03-05T01:58:07;95814;;;1.5;60.6
77469;BME280;66567;50.272;12.818;2023-03-05T02:00:11;95807;;;1.4;60.1
77469;BME280;66567;50.272;12.818;2023-03-05T02:02:07;95806;;;1.5;60.1
77469;BME280;66567;50.272;12.818;2023-03-05T02:04:07;95808;;;1.5;59.9
77469;BME280;66567;50.272;12.818;2023-03-05T02:06:05;95804;;;1.4;59.7
77469;BME280;66567;50.272;12.818;2023-03-05T02:08:07;95804;;;1.4;59.9
77469;BME280;66567;50.272;12.818;2023-03-05T02:12:07;95797;;;1.4;60.2
77469;BME280;66567;50.272;12.818;2023-03-05T02:14:05;95795;;;1.4;60.5
77469;BME280;66567;50.272;12.818;2023-03-05T02:16:06;95795;;;1.4;60.8
77469;BME280;66567;50.272;12.818;2023-03-05T02:18:06;95792;;;1.5;60.7
77469;BME280;66567;50.272;12.818;2023-03-05T02:20:08;95790;;;1.4;60.8
77469;BME280;66567;50.272;12.818;2023-03-05T02:22:05;95788;;;1.4;60.6
77469;BME280;66567;50.272;12.818;2023-03-05T02:24:06;95786;;;1.4;60.9
77469;BME280;66567;50.272;12.818;2023-03-05T02:26:07;95784;;;1.5;60.9
77469;BME280;66567;50.272;12.818;2023-03-05T02:28:11;95784;;;1.5;60.9
77469;BME280;66567;50.272;12.818;2023-03-05T02:30:06;95780;;;1.5;61.5
77469;BME280;66567;50.272;12.818;2023-03-05T02:32:05;95776;;;1.4;61.6
77469;BME280;66567;50.272;12.818;2023-03-05T02:34:05;95774;;;1.4;61.9
77469;BME280;66567;50.272;12.818;2023-03-05T02:36:06;95770;;;1.4;61.9
77469;BME280;66567;50.272;12.818;2023-03-05T02:38:05;95769;;;1.4;62.1
77469;BME280;66567;50.272;12.818;2023-03-05T02:40:06;95766;;;1.4;62.4
77469;BME280;66567;50.272;12.818;2023-03-05T02:42:05;95766;;;1.4;62.6
77469;BME280;66567;50.272;12.818;2023-03-05T02:44:05;95762;;;1.4;62.8
77469;BME280;66567;50.272;12.818;2023-03-05T02:46:05;95759;;;1.4;63.2
77469;BME280;66567;50.272;12.818;2023-03-05T02:48:05;95757;;;1.3;63.4
77469;BME280;66567;50.272;12.818;2023-03-05T02:50:06;95759;;;1.3;63.6
77469;BME280;66567;50.272;12.818;2023-03-05T02:52:05;95757;;;1.3;63.7
77469;BME280;66567;50.272;12.818;2023-03-05T02:54:05;95757;;;1.3;63.9
77469;BME280;66567;50.272;12.818;2023-03-05T02:56:05;95757;;;1.3;63.9
77469;BME280;66567;50.272;12.818;2023-03-05T02:58:05;95756;;;1.3;63.8
77469;BME280;66567;50.272;12.818;2023-03-05T03:00:06;95755;;;1.3;64.2
77469;BME280;66567;50.272;12.818;2023-03-05T03:02:05;95754;;;1.3;64.4
77469;BME280;66567;50.272;12.818;2023-03-05T03:04:05;95752;;;1.3;64.8
77469;BME280;66567;50.272;12.818;2023-03-05T03:06:06;95749;;;1.2;65.2
77469;BME280;66567;50.272;12.818;2023-03-05T03:08:05;95749;;;1.2;65.5
77469;BME280;66567;50.272;12.818;2023-03-05T03:10:06;95750;;;1.2;65.8
77469;BME280;66567;50.272;12.818;2023-03-05T03:12:06;95747;;;1.2;66.1
77469;BME280;66567;50.272;12.818;2023-03-05T03:14:05;95748;;;1.2;66.4
77469;BME280;66567;50.272;12.818;2023-03-05T03:16:09;95747;;;1.2;66.6
77469;BME280;66567;50.272;12.818;2023-03-05T03:18:05;95746;;;1.2;66.8
77469;BME280;66567;50.272;12.818;2023-03-05T03:20:08;95745;;;1.2;67.1
77469;BME280;66567;50.272;12.818;2023-03-05T03:22:06;95744;;;1.2;67.2
77469;BME280;66567;50.272;12.818;2023-03-05T03:24:05;95742;;;1.1;67.2
77469;BME280;66567;50.272;12.818;2023-03-05T03:26:06;95743;;;1.1;67.5
77469;BME280;66567;50.272;12.818;2023-03-05T03:28:05;95742;;;1.1;67.7
77469;BME280;66567;50.272;12.818;2023-03-05T03:30:06;95740;;;1.1;67.9
77469;BME280;66567;50.272;12.818;2023-03-05T03:32:07;95736;;;1.1;67.9
77469;BME280;66567;50.272;12.818;2023-03-05T03:34:05;95736;;;1.1;67.6
77469;BME280;66567;50.272;12.818;2023-03-05T03:36:06;95734;;;1.0;67.3
77469;BME280;66567;50.272;12.818;2023-03-05T03:38:05;95735;;;1.0;66.8
77469;BME280;66567;50.272;12.818;2023-03-05T03:40:06;95734;;;1.0;65.8
77469;BME280;66567;50.272;12.818;2023-03-05T03:42:05;95736;;;1.0;65.4
77469;BME280;66567;50.272;12.818;2023-03-05T03:44:07;95734;;;1.0;64.4
77469;BME280;66567;50.272;12.818;2023-03-05T03:46:06;95734;;;1.0;64.0
77469;BME280;66567;50.272;12.818;2023-03-05T03:48:05;95736;;;1.0;63.5
77469;BME280;66567;50.272;12.818;2023-03-05T03:50:06;95731;;;1.0;63.3
77469;BME280;66567;50.272;12.818;2023-03-05T03:52:05;95733;;;1.0;62.7
77469;BME280;66567;50.272;12.818;2023-03-05T03:54:05;95734;;;1.0;62.8
77469;BME280;66567;50.272;12.818;2023-03-05T03:56:05;95736;;;1.0;61.4
77469;BME280;66567;50.272;12.818;2023-03-05T03:58:05;95738;;;1.0;60.4
77469;BME280;66567;50.272;12.818;2023-03-05T04:00:06;95736;;;1.0;59.9
77469;BME280;66567;50.272;12.818;2023-03-05T04:02:06;95736;;;1.0;60.0
77469;BME280;66567;50.272;12.818;2023-03-05T04:04:05;95736;;;1.0;59.6
77469;BME280;66567;50.272;12.818;2023-03-05T04:06:06;95732;;;0.9;58.0
77469;BME280;66567;50.272;12.818;2023-03-05T04:08:10;95732;;;0.9;58.0
77469;BME280;66567;50.272;12.818;2023-03-05T04:10:06;95730;;;0.9;57.8
77469;BME280;66567;50.272;12.818;2023-03-05T04:12:06;95730;;;0.9;57.9
77469;BME280;66567;50.272;12.818;2023-03-05T04:14:05;95728;;;0.9;58.0
77469;BME280;66567;50.272;12.818;2023-03-05T04:16:05;95729;;;0.9;58.0
77469;BME280;66567;50.272;12.818;2023-03-05T04:18:05;95730;;;0.9;58.2
77469;BME280;66567;50.272;12.818;2023-03-05T04:20:08;95732;;;0.9;58.4
77469;BME280;66567;50.272;12.818;2023-03-05T04:22:10;95730;;;0.9;58.7
77469;BME280;66567;50.272;12.818;2023-03-05T04:24:07;95730;;;0.9;59.3
77469;BME280;66567;50.272;12.818;2023-03-05T04:26:05;95728;;;0.9;59.5
77469;BME280;66567;50.272;12.818;2023-03-05T04:28:05;95730;;;0.9;59.7
77469;BME280;66567;50.272;12.818;2023-03-05T04:30:07;95730;;;0.9;59.9
77469;BME280;66567;50.272;12.818;2023-03-05T04:32:06;95727;;;0.9;60.2
77469;BME280;66567;50.272;12.818;2023-03-05T04:34:05;95727;;;0.9;60.2
77469;BME280;66567;50.272;12.818;2023-03-05T04:36:06;95736;;;0.8;60.6
77469;BME280;66567;50.272;12.818;2023-03-05T04:38:06;95733;;;0.8;59.2
77469;BME280;66567;50.272;12.818;2023-03-05T04:40:06;95733;;;0.8;58.8
77469;BME280;66567;50.272;12.818;2023-03-05T04:42:05;95739;;;0.8;58.7
77469;BME280;66567;50.272;12.818;2023-03-05T04:44:05;95740;;;0.8;57.8
77469;BME280;66567;50.272;12.818;2023-03-05T04:46:05;95741;;;0.8;57.1
77469;BME280;66567;50.272;12.818;2023-03-05T04:48:05;95740;;;0.7;56.7
77469;BME280;66567;50.272;12.818;2023-03-05T04:50:06;95742;;;0.7;57.1
77469;BME280;66567;50.272;12.818;2023-03-05T04:52:05;95740;;;0.7;57.2
77469;BME280;66567;50.272;12.818;2023-03-05T04:54:05;95735;;;0.7;56.7
77469;BME280;66567;50.272;12.818;2023-03-05T04:56:06;95733;;;0.7;56.3
77469;BME280;66567;50.272;12.818;2023-03-05T04:58:05;95735;;;0.7;55.8
77469;BME280;66567;50.272;12.818;2023-03-05T05:00:08;95735;;;0.7;56.3
77469;BME280;66567;50.272;12.818;2023-03-05T05:02:06;95737;;;0.6;56.5
77469;BME280;66567;50.272;12.818;2023-03-05T05:04:05;95731;;;0.6;56.4
77469;BME280;66567;50.272;12.818;2023-03-05T05:06:06;95729;;;0.6;56.7
77469;BME280;66567;50.272;12.818;2023-03-05T05:08:05;95726;;;0.6;56.9
77469;BME280;66567;50.272;12.818;2023-03-05T05:10:07;95722;;;0.6;57.3
77469;BME280;66567;50.272;12.818;2023-03-05T05:12:06;95720;;;0.6;57.4
77469;BME280;66567;50.272;12.818;2023-03-05T05:14:06;95721;;;0.6;57.5
77469;BME280;66567;50.272;12.818;2023-03-05T05:16:06;95721;;;0.6;57.2
77469;BME280;66567;50.272;12.818;2023-03-05T05:18:05;95719;;;0.6;57.6
77469;BME280;66567;50.272;12.818;2023-03-05T05:20:06;95718;;;0.6;57.3
77469;BME280;66567;50.272;12.818;2023-03-05T05:22:05;95721;;;0.6;57.3
77469;BME280;66567;50.272;12.818;2023-03-05T05:24:05;95717;;;0.6;57.1
77469;BME280;66567;50.272;12.818;2023-03-05T05:26:06;95718;;;0.6;57.3
77469;BME280;66567;50.272;12.818;2023-03-05T05:28:05;95718;;;0.6;57.1
77469;BME280;66567;50.272;12.818;2023-03-05T05:30:06;95718;;;0.6;57.1
77469;BME280;66567;50.272;12.818;2023-03-05T05:32:05;95716;;;0.6;57.1
77469;BME280;66567;50.272;12.818;2023-03-05T05:34:05;95716;;;0.6;57.1
77469;BME280;66567;50.272;12.818;2023-03-05T05:36:07;95717;;;0.6;57.2
77469;BME280;66567;50.272;12.818;2023-03-05T05:38:05;95715;;;0.6;57.4
77469;BME280;66567;50.272;12.818;2023-03-05T05:40:07;95713;;;0.6;57.1
77469;BME280;66567;50.272;12.818;2023-03-05T05:42:05;95712;;;0.6;57.3
77469;BME280;66567;50.272;12.818;2023-03-05T05:44:05;95711;;;0.6;57.4
77469;BME280;66567;50.272;12.818;2023-03-05T05:46:09;95710;;;0.6;57.9
77469;BME280;66567;50.272;12.818;2023-03-05T05:48:05;95711;;;0.6;57.9
77469;BME280;66567;50.272;12.818;2023-03-05T05:50:06;95712;;;0.6;58.0
77469;BME280;66567;50.272;12.818;2023-03-05T05:52:05;95712;;;0.6;58.2
77469;BME280;66567;50.272;12.818;2023-03-05T05:54:05;95711;;;0.6;58.4
77469;BME280;66567;50.272;12.818;2023-03-05T05:56:07;95712;;;0.6;58.7
77469;BME280;66567;50.272;12.818;2023-03-05T05:58:05;95711;;;0.6;58.7
77469;BME280;66567;50.272;12.818;2023-03-05T06:00:07;95713;;;0.6;58.8
77469;BME280;66567;50.272;12.818;2023-03-05T06:02:06;95714;;;0.7;58.9
77469;BME280;66567;50.272;12.818;2023-03-05T06:04:05;95713;;;0.7;59.0
77469;BME280;66567;50.272;12.818;2023-03-05T06:06:09;95715;;;0.7;59.3
77469;BME280;66567;50.272;12.818;2023-03-05T06:08:06;95715;;;0.7;59.3
77469;BME280;66567;50.272;12.818;2023-03-05T06:10:06;95716;;;0.7;59.8
77469;BME280;66567;50.272;12.818;2023-03-05T06:12:06;95716;;;0.7;60.1
77469;BME280;66567;50.272;12.818;2023-03-05T06:14:08;95717;;;0.7;60.4
77469;BME280;66567;50.272;12.818;2023-03-05T06:16:08;95720;;;0.7;60.6
77469;BME280;66567;50.272;12.818;2023-03-05T06:18:05;95718;;;0.7;60.8
77469;BME280;66567;50.272;12.818;2023-03-05T06:20:06;95716;;;0.6;62.0
77469;BME280;66567;50.272;12.818;2023-03-05T06:22:05;95718;;;0.6;62.5
77469;BME280;66567;50.272;12.818;2023-03-05T06:24:06;95719;;;0.6;63.0
77469;BME280;66567;50.272;12.818;2023-03-05T06:26:06;95720;;;0.6;63.4
77469;BME280;66567;50.272;12.818;2023-03-05T06:28:05;95719;;;0.6;63.7
77469;BME280;66567;50.272;12.818;2023-03-05T06:30:06;95720;;;0.6;64.0
77469;BME280;66567;50.272;12.818;2023-03-05T06:32:05;95720;;;0.6;64.3
77469;BME280;66567;50.272;12.818;2023-03-05T06:34:05;95719;;;0.6;64.5
77469;BME280;66567;50.272;12.818;2023-03-05T06:36:08;95716;;;0.6;64.6
77469;BME280;66567;50.272;12.818;2023-03-05T06:38:06;95718;;;0.6;64.7
77469;BME280;66567;50.272;12.818;2023-03-05T06:40:06;95717;;;0.6;64.8
77469;BME280;66567;50.272;12.818;2023-03-05T06:42:05;95719;;;0.6;65.0
77469;BME280;66567;50.272;12.818;2023-03-05T06:44:05;95717;;;0.6;65.2
77469;BME280;66567;50.272;12.818;2023-03-05T06:46:24;95719;;;0.6;65.6
77469;BME280;66567;50.272;12.818;2023-03-05T06:48:06;95721;;;0.6;65.8
77469;BME280;66567;50.272;12.818;2023-03-05T06:50:06;95720;;;0.6;66.0
77469;BME280;66567;50.272;12.818;2023-03-05T06:52:06;95722;;;0.6;66.0
77469;BME280;66567;50.272;12.818;2023-03-05T06:54:08;95722;;;0.6;66.1
77469;BME280;66567;50.272;12.818;2023-03-05T06:56:05;95722;;;0.6;66.5
77469;BME280;66567;50.272;12.818;2023-03-05T06:58:05;95721;;;0.6;66.5
77469;BME280;66567;50.272;12.818;2023-03-05T07:00:08;95723;;;0.6;66.7
77469;BME280;66567;50.272;12.818;2023-03-05T07:02:08;95722;;;0.6;66.8
77469;BME280;66567;50.272;12.818;2023-03-05T07:04:05;95722;;;0.6;67.0
77469;BME280;66567;50.272;12.818;2023-03-05T07:06:07;95724;;;0.6;67.2
77469;BME280;66567;50.272;12.818;2023-03-05T07:08:05;95724;;;0.6;67.2
77469;BME280;66567;50.272;12.818;2023-03-05T07:10:06;95723;;;0.6;67.2
77469;BME280;66567;50.272;12.818;2023-03-05T07:12:06;95722;;;0.6;67.0
77469;BME280;66567;50.272;12.818;2023-03-05T07:14:05;95721;;;0.6;66.8
77469;BME280;66567;50.272;12.818;2023-03-05T07:16:07;95720;;;0.6;66.6
77469;BME280;66567;50.272;12.818;2023-03-05T07:18:06;95718;;;0.6;66.0
77469;BME280;66567;50.272;12.818;2023-03-05T07:20:06;95718;;;0.6;65.4
77469;BME280;66567;50.272;12.818;2023-03-05T07:22:06;95719;;;0.6;65.8
77469;BME280;66567;50.272;12.818;2023-03-05T07:24:06;95720;;;0.6;65.3
77469;BME280;66567;50.272;12.818;2023-03-05T07:26:05;95720;;;0.6;65.0
77469;BME280;66567;50.272;12.818;2023-03-05T07:28:07;95721;;;0.6;64.8
77469;BME280;66567;50.272;12.818;2023-03-05T07:30:06;95726;;;0.7;64.6
77469;BME280;66567;50.272;12.818;2023-03-05T07:32:05;95728;;;0.7;64.6
77469;BME280;66567;50.272;12.818;2023-03-05T07:34:05;95726;;;0.7;63.6
77469;BME280;66567;50.272;12.818;2023-03-05T07:36:07;95727;;;0.7;63.1
77469;BME280;66567;50.272;12.818;2023-03-05T07:38:05;95725;;;0.7;62.1
77469;BME280;66567;50.272;12.818;2023-03-05T07:40:06;95725;;;0.7;60.7
77469;BME280;66567;50.272;12.818;2023-03-05T07:42:05;95724;;;0.7;60.0
77469;BME280;66567;50.272;12.818;2023-03-05T07:44:05;95724;;;0.7;59.7
77469;BME280;66567;50.272;12.818;2023-03-05T07:46:07;95721;;;0.7;60.1
77469;BME280;66567;50.272;12.818;2023-03-05T07:48:06;95720;;;0.7;60.1
77469;BME280;66567;50.272;12.818;2023-03-05T07:50:06;95719;;;0.8;60.1
77469;BME280;66567;50.272;12.818;2023-03-05T07:52:06;95719;;;0.8;60.1
77469;BME280;66567;50.272;12.818;2023-03-05T07:54:06;95718;;;0.8;60.2
77469;BME280;66567;50.272;12.818;2023-03-05T07:56:06;95719;;;0.8;60.3
77469;BME280;66567;50.272;12.818;2023-03-05T07:58:05;95721;;;0.8;59.9
77469;BME280;66567;50.272;12.818;2023-03-05T08:00:06;95719;;;0.8;60.5
77469;BME280;66567;50.272;12.818;2023-03-05T08:02:06;95720;;;0.9;60.0
77469;BME280;66567;50.272;12.818;2023-03-05T08:04:06;95718;;;0.9;60.3
77469;BME280;66567;50.272;12.818;2023-03-05T08:06:06;95716;;;0.9;60.5
77469;BME280;66567;50.272;12.818;2023-03-05T08:08:06;95711;;;1.0;60.4
77469;BME280;66567;50.272;12.818;2023-03-05T08:10:06;95706;;;1.0;60.4
77469;BME280;66567;50.272;12.818;2023-03-05T08:12:06;95702;;;1.0;60.1
77469;BME280;66567;50.272;12.818;2023-03-05T08:14:05;95701;;;1.1;60.0
77469;BME280;66567;50.272;12.818;2023-03-05T08:16:07;95700;;;1.2;59.8
77469;BME280;66567;50.272;12.818;2023-03-05T08:18:05;95698;;;1.2;59.0
77469;BME280;66567;50.272;12.818;2023-03-05T08:20:09;95695;;;1.3;58.5
77469;BME280;66567;50.272;12.818;2023-03-05T08:22:05;95692;;;1.3;58.2
77469;BME280;66567;50.272;12.818;2023-03-05T08:24:07;95689;;;1.4;57.1
77469;BME280;66567;50.272;12.818;2023-03-05T08:26:14;95683;;;1.5;56.8
77469;BME280;66567;50.272;12.818;2023-03-05T08:28:05;95684;;;1.6;56.4
77469;BME280;66567;50.272;12.818;2023-03-05T08:30:07;95682;;;1.7;56.4
77469;BME280;66567;50.272;12.818;2023-03-05T08:32:05;95677;;;1.7;55.7
77469;BME280;66567;50.272;12.818;2023-03-05T08:34:05;95680;;;1.7;56.2
77469;BME280;66567;50.272;12.818;2023-03-05T08:36:06;95678;;;1.8;55.3
77469;BME280;66567;50.272;12.818;2023-03-05T08:38:05;95677;;;1.8;55.4
77469;BME280;66567;50.272;12.818;2023-03-05T08:40:06;95676;;;1.9;55.2
77469;BME280;66567;50.272;12.818;2023-03-05T08:42:06;95678;;;2.0;55.5
77469;BME280;66567;50.272;12.818;2023-03-05T08:44:05;95677;;;2.0;55.8
77469;BME280;66567;50.272;12.818;2023-03-05T08:46:05;95675;;;2.0;55.1
77469;BME280;66567;50.272;12.818;2023-03-05T08:48:06;95673;;;2.1;55.6
77469;BME280;66567;50.272;12.818;2023-03-05T08:50:06;95671;;;2.1;55.1
77469;BME280;66567;50.272;12.818;2023-03-05T08:52:05;95670;;;2.1;55.3
77469;BME280;66567;50.272;12.818;2023-03-05T08:54:08;95670;;;2.1;55.2
77469;BME280;66567;50.272;12.818;2023-03-05T08:56:06;95671;;;2.2;55.2
77469;BME280;66567;50.272;12.818;2023-03-05T08:58:05;95669;;;2.2;55.2
77469;BME280;66567;50.272;12.818;2023-03-05T09:00:06;95672;;;2.2;55.7
77469;BME280;66567;50.272;12.818;2023-03-05T09:02:05;95668;;;2.3;55.9
77469;BME280;66567;50.272;12.818;2023-03-05T09:04:05;95666;;;2.3;55.6
77469;BME280;66567;50.272;12.818;2023-03-05T09:06:07;95666;;;2.4;55.8
77469;BME280;66567;50.272;12.818;2023-03-05T09:08:05;95665;;;2.4;55.9
77469;BME280;66567;50.272;12.818;2023-03-05T09:10:06;95662;;;2.4;55.8
77469;BME280;66567;50.272;12.818;2023-03-05T09:12:06;95657;;;2.5;56.3
77469;BME280;66567;50.272;12.818;2023-03-05T09:14:05;95656;;;2.5;55.6
77469;BME280;66567;50.272;12.818;2023-03-05T09:16:07;95650;;;2.6;55.4
77469;BME280;66567;50.272;12.818;2023-03-05T09:18:07;95647;;;2.6;54.9
77469;BME280;66567;50.272;12.818;2023-03-05T09:20:06;95646;;;2.7;55.2
77469;BME280;66567;50.272;12.818;2023-03-05T09:22:05;95648;;;2.7;54.7
77469;BME280;66567;50.272;12.818;2023-03-05T09:24:06;95643;;;2.7;54.4
77469;BME280;66567;50.272;12.818;2023-03-05T09:26:07;95642;;;2.7;55.0
77469;BME280;66567;50.272;12.818;2023-03-05T09:28:06;95640;;;2.7;54.7
77469;BME280;66567;50.272;12.818;2023-03-05T09:30:06;95640;;;2.7;54.7
77469;BME280;66567;50.272;12.818;2023-03-05T09:32:06;95637;;;2.7;54.6
77469;BME280;66567;50.272;12.818;2023-03-05T09:34:07;95638;;;2.7;54.2
77469;BME280;66567;50.272;12.818;2023-03-05T09:36:17;95638;;;2.7;54.0
77469;BME280;66567;50.272;12.818;2023-03-05T09:38:05;95635;;;2.8;53.6
77469;BME280;66567;50.272;12.818;2023-03-05T09:40:06;95638;;;2.7;53.5
77469;BME280;66567;50.272;12.818;2023-03-05T09:48:23;95638;;;2.5;54.5
77469;BME280;66567;50.272;12.818;2023-03-05T09:52:15;95642;;;2.5;55.4
77469;BME280;66567;50.272;12.818;2023-03-05T09:56:15;95644;;;2.4;55.3
77469;BME280;66567;50.272;12.818;2023-03-05T10:00:15;95645;;;2.4;55.8
77469;BME280;66567;50.272;12.818;2023-03-05T10:02:16;95648;;;2.3;55.7
77469;BME280;66567;50.272;12.818;2023-03-05T10:04:25;95649;;;2.3;55.9
77469;BME280;66567;50.272;12.818;2023-03-05T10:08:07;95649;;;2.2;57.1
77469;BME280;66567;50.272;12.818;2023-03-05T10:10:11;95647;;;2.1;57.2
77469;BME280;66567;50.272;12.818;2023-03-05T10:12:25;95644;;;2.1;57.5
77469;BME280;66567;50.272;12.818;2023-03-05T10:14:09;95639;;;2.1;58.2
77469;BME280;66567;50.272;12.818;2023-03-05T10:22:15;95626;;;2.1;58.9
77469;BME280;66567;50.272;12.818;2023-03-05T10:24:16;95624;;;2.2;59.0
77469;BME280;66567;50.272;12.818;2023-03-05T10:28:13;95618;;;2.2;58.3
77469;BME280;66567;50.272;12.818;2023-03-05T10:32:28;95612;;;2.3;58.5
77469;BME280;66567;50.272;12.818;2023-03-05T10:46:11;95588;;;3.0;57.7
77469;BME280;66567;50.272;12.818;2023-03-05T10:48:13;95585;;;3.2;56.4
77469;BME280;66567;50.272;12.818;2023-03-05T10:50:15;95576;;;3.3;55.8
77469;BME280;66567;50.272;12.818;2023-03-05T10:52:16;95571;;;3.3;56.2
77469;BME280;66567;50.272;12.818;2023-03-05T10:54:27;95570;;;3.4;55.6
77469;BME280;66567;50.272;12.818;2023-03-05T10:56:05;95565;;;3.4;55.3
77469;BME280;66567;50.272;12.818;2023-03-05T10:58:14;95560;;;3.4;54.6
77469;BME280;66567;50.272;12.818;2023-03-05T11:00:10;95560;;;3.3;55.0
77469;BME280;66567;50.272;12.818;2023-03-05T11:02:07;95558;;;3.3;55.2
77469;BME280;66567;50.272;12.818;2023-03-05T11:04:08;95555;;;3.2;54.7
77469;BME280;66567;50.272;12.818;2023-03-05T11:06:05;95557;;;3.2;55.0
77469;BME280;66567;50.272;12.818;2023-03-05T11:08:31;95556;;;3.1;54.3
77469;BME280;66567;50.272;12.818;2023-03-05T11:10:14;95553;;;3.1;54.9
77469;BME280;66567;50.272;12.818;2023-03-05T11:14:28;95550;;;3.0;54.6
77469;BME280;66567;50.272;12.818;2023-03-05T11:16:09;95548;;;3.1;54.2
77469;BME280;66567;50.272;12.818;2023-03-05T11:18:17;95542;;;3.1;53.7
77469;BME280;66567;50.272;12.818;2023-03-05T11:22:15;95542;;;3.1;53.9
77469;BME280;66567;50.272;12.818;2023-03-05T11:24:17;95540;;;3.1;53.3
77469;BME280;66567;50.272;12.818;2023-03-05T11:26:17;95537;;;3.1;53.5
77469;BME280;66567;50.272;12.818;2023-03-05T11:28:16;95532;;;3.1;53.0
77469;BME280;66567;50.272;12.818;2023-03-05T11:30:17;95528;;;3.0;53.4
77469;BME280;66567;50.272;12.818;2023-03-05T11:32:19;95529;;;3.0;52.8
77469;BME280;66567;50.272;12.818;2023-03-05T11:34:10;95526;;;3.0;53.5
77469;BME280;66567;50.272;12.818;2023-03-05T11:36:12;95528;;;2.9;53.5
77469;BME280;66567;50.272;12.818;2023-03-05T11:38:10;95528;;;2.9;53.5
77469;BME280;66567;50.272;12.818;2023-03-05T11:40:22;95525;;;2.9;53.9
77469;BME280;66567;50.272;12.818;2023-03-05T11:42:10;95522;;;2.9;54.0
77469;BME280;66567;50.272;12.818;2023-03-05T11:44:14;95523;;;2.9;53.3
77469;BME280;66567;50.272;12.818;2023-03-05T11:46:05;95524;;;2.9;53.7
77469;BME280;66567;50.272;12.818;2023-03-05T11:52:10;95522;;;2.8;53.5
77469;BME280;66567;50.272;12.818;2023-03-05T11:54:10;95521;;;2.8;53.5
77469;BME280;66567;50.272;12.818;2023-03-05T11:56:16;95517;;;2.8;53.5
77469;BME280;66567;50.272;12.818;2023-03-05T12:00:12;95515;;;2.7;54.1
77469;BME280;66567;50.272;12.818;2023-03-05T12:02:15;95514;;;2.7;53.9
77469;BME280;66567;50.272;12.818;2023-03-05T12:04:07;95511;;;2.6;54.3
77469;BME280;66567;50.272;12.818;2023-03-05T12:06:16;95510;;;2.6;54.4
77469;BME280;66567;50.272;12.818;2023-03-05T12:08:05;95510;;;2.6;54.8
77469;BME280;66567;50.272;12.818;2023-03-05T12:10:05;95507;;;2.5;55.1